Arcola, Louisiana
Current Conditions -  °F | °C
As of 2:53 AM on Thursday 18 Dec 2014 (Local Time) from KMCB Reporting Station
Overcast Overcast  
Wind Chill: 44°   Ceiling: 8500
Heat Index: 44°   Visibility: 10mi
Dew Point: 41°   Wind: 3mph
Humidity: 89%   Direction: 80°E
Pressure: 30.18"   Gusts: NA
Location:  30.7896°N, 90.5314°W
Report Text: KMCB 180853Z AUTO 08003KT 10SM OVC085 07/05 A3018 RMK AO2 SLP218 T00670050 58002
Loading
Personal Weather Stations






























Interactive Weather Map New forecast layout! Learn more

10-Day Weather Forecast

Advertisements
Track Severe Weather on mobile